PHKO METAR and TAF | Updated Today

PHKO METAR

Ellison Onizuka Kona International At Keahole Airport

Observation time: 47 min. ago

PHKO 061853Z 15008KT 10SM FEW040 26/19 A3015 RMK AO2 SLP207 T02610189

Need help? Read our tutorial on how to read METARs or read the parsed version below.

Ellison Onizuka Kona International At Keahole Airport (PHKO) METAR

  • Weather conditions on Mon, 06 Feb 2023 18:53:00 +0000 (47 min. ago):
  • Present conditions: Dry
  • Clouds: A few at 1219 meters
  • Visibility: 16093 meters
  • Wind: 150 degrees at 8 knots
  • Temperature: 26 celsius
  • Dew point: 19 celsius
  • Pressure: 30.15 inHg
  • Remarks: AO2 SLP207 T02610189


Useful to know...

PHKO TAF

Ellison Onizuka Kona International At Keahole Airport

PHKO 061731Z 0618/0718 23011KT P6SM SCT030 SCT060 FM070400 14006KT P6SM SCT030 BKN060
Observation time: 2:09 hr. ago
Need help? Read our tutorial on how to read TAFs or read the parsed version below.

Parsed version of TAF for Ellison Onizuka Kona International At Keahole Airport (PHKO)

  • From 06 February at 18:00 UTC, to day 07 of the month at 18:00 UTC
  • Clouds: Scattered at 914 meters; scattered at 1829 meters
  • Wind: 230 degrees at 11
  • From day 7 of the month at 04:00 UTC
  • Clouds: Scattered at 914 meters; broken sky at 1829 meters
  • Wind: 140 degrees at 6